Aviation Digital Data Service (ADDS)

Output produced by METARs form (1056 UTC 17 June 2019)
found at http://www.aviationweather.gov/metar/data/
 
Forecast for: EGNS (ISLE OF MAN/RONA, GB)
Text: TAF EGNS 170800Z 1709/1718 21015KT 9999 FEW003 SCT006 SCT020
Forecast period: 0900 to 1800 UTC 17 June 2019
Forecast type: FROM: standard forecast or significant change
Winds: from the SSW (210 degrees) at 17 MPH (15 knots; 7.7 m/s)
Visibility: 6 or more miles 10+ km)
Ceiling: at least 12,000 feet AGL
Clouds: few clouds at 300 feet AGL
scattered clouds at 600 feet AGL
scattered clouds at 2000 feet AGL
Weather: no significant weather forecast for this period
Text: BECMG 1709/1712 21018G28KT
Forecast period: 0900 to 1800 UTC 17 June 2019
Forecast type: BECOMING: Conditions expected to become as follows by 1200 UTC 17 June 2019
Winds: from the SSW (210 degrees) at 21 MPH (18 knots; 9.3 m/s)
gusting to 32 MPH (28 knots; 14.4 m/s)
Visibility: 6 or more miles 10+ km)
Ceiling: at least 12,000 feet AGL
Clouds: few clouds at 300 feet AGL
scattered clouds at 600 feet AGL
scattered clouds at 2000 feet AGL
Weather: no significant weather forecast for this period
Text: TEMPO 1709/1718 BKN006
Forecast period: 0900 to 1800 UTC 17 June 2019
Forecast type: TEMPORARY: The following changes expected for less than half the time period
Visibility: missing
Ceiling: 600 feet AGL
Clouds: broken clouds at 600 feet AGL
Weather: no significant weather forecast for this period